Oriole, Maryland
Current Conditions -  °F | °C
As of 2:54 PM on Saturday 20 Dec 2014 (Local Time) from KSBY Reporting Station
Broken Clouds Broken Clouds  
Wind Chill: 39°   Ceiling: 12000
Heat Index: 39°   Visibility: 10mi
Dew Point: 24°   Wind: 3mph
Humidity: 55%   Direction: 270°W
Pressure: 30.26"   Gusts: NA
Location:  38.1954°N, 75.7083°W
Report Text: KSBY 201954Z 27003KT 10SM BKN120 04/M04 A3026 RMK AO2 SLP250 T00391044
Loading
Personal Weather Stations






























Interactive Weather Map New forecast layout! Learn more

10-Day Weather Forecast

Advertisements
Track Severe Weather on mobile